sensor_id;sensor_type;location;lat;lon;timestamp;P1;durP1;ratioP1;P2;durP2;ratioP2
52320;SDS011;38261;54.090;13.382;2024-03-06T00:00:53;20.43;;;7.97;;
52320;SDS011;38261;54.090;13.382;2024-03-06T00:02:15;17.23;;;8.43;;
52320;SDS011;38261;54.090;13.382;2024-03-06T00:03:37;15.37;;;7.50;;
52320;SDS011;38261;54.090;13.382;2024-03-06T00:04:59;17.47;;;8.20;;
52320;SDS011;38261;54.090;13.382;2024-03-06T00:06:22;15.00;;;6.00;;
52320;SDS011;38261;54.090;13.382;2024-03-06T00:07:44;8.37;;;5.40;;
52320;SDS011;38261;54.090;13.382;2024-03-06T00:09:06;12.80;;;6.40;;
52320;SDS011;38261;54.090;13.382;2024-03-06T00:10:29;10.03;;;5.43;;
52320;SDS011;38261;54.090;13.382;2024-03-06T00:11:52;13.73;;;5.60;;
52320;SDS011;38261;54.090;13.382;2024-03-06T00:13:15;9.87;;;6.10;;
52320;SDS011;38261;54.090;13.382;2024-03-06T00:14:37;16.40;;;5.77;;
52320;SDS011;38261;54.090;13.382;2024-03-06T00:15:59;10.20;;;5.73;;
52320;SDS011;38261;54.090;13.382;2024-03-06T00:17:21;12.33;;;6.10;;
52320;SDS011;38261;54.090;13.382;2024-03-06T00:18:43;11.40;;;6.63;;
52320;SDS011;38261;54.090;13.382;2024-03-06T00:20:05;7.53;;;5.23;;
52320;SDS011;38261;54.090;13.382;2024-03-06T00:21:29;10.43;;;6.63;;
52320;SDS011;38261;54.090;13.382;2024-03-06T00:22:52;12.20;;;6.30;;
52320;SDS011;38261;54.090;13.382;2024-03-06T00:24:15;11.07;;;5.67;;
52320;SDS011;38261;54.090;13.382;2024-03-06T00:25:37;12.37;;;6.27;;
52320;SDS011;38261;54.090;13.382;2024-03-06T00:26:59;12.80;;;6.70;;
52320;SDS011;38261;54.090;13.382;2024-03-06T00:28:23;12.27;;;6.17;;
52320;SDS011;38261;54.090;13.382;2024-03-06T00:29:45;8.63;;;5.60;;
52320;SDS011;38261;54.090;13.382;2024-03-06T00:31:07;10.83;;;6.77;;
52320;SDS011;38261;54.090;13.382;2024-03-06T00:32:30;9.70;;;6.20;;
52320;SDS011;38261;54.090;13.382;2024-03-06T00:33:52;7.80;;;5.40;;
52320;SDS011;38261;54.090;13.382;2024-03-06T00:35:14;9.17;;;6.30;;
52320;SDS011;38261;54.090;13.382;2024-03-06T00:36:37;9.30;;;5.97;;
52320;SDS011;38261;54.090;13.382;2024-03-06T00:37:59;15.00;;;6.40;;
52320;SDS011;38261;54.090;13.382;2024-03-06T00:39:24;15.27;;;6.50;;
52320;SDS011;38261;54.090;13.382;2024-03-06T00:40:47;10.50;;;6.00;;
52320;SDS011;38261;54.090;13.382;2024-03-06T00:42:09;11.60;;;6.57;;
52320;SDS011;38261;54.090;13.382;2024-03-06T00:43:35;8.80;;;5.40;;
52320;SDS011;38261;54.090;13.382;2024-03-06T00:44:57;13.53;;;6.40;;
52320;SDS011;38261;54.090;13.382;2024-03-06T00:46:19;10.93;;;5.83;;
52320;SDS011;38261;54.090;13.382;2024-03-06T00:47:41;11.60;;;6.00;;
52320;SDS011;38261;54.090;13.382;2024-03-06T00:49:04;7.83;;;5.50;;
52320;SDS011;38261;54.090;13.382;2024-03-06T00:50:27;11.00;;;5.33;;
52320;SDS011;38261;54.090;13.382;2024-03-06T00:51:49;7.43;;;5.50;;
52320;SDS011;38261;54.090;13.382;2024-03-06T00:53:11;10.90;;;5.90;;
52320;SDS011;38261;54.090;13.382;2024-03-06T00:54:33;15.40;;;6.10;;
52320;SDS011;38261;54.090;13.382;2024-03-06T00:55:56;11.20;;;6.20;;
52320;SDS011;38261;54.090;13.382;2024-03-06T00:57:18;11.13;;;6.57;;
52320;SDS011;38261;54.090;13.382;2024-03-06T00:58:40;9.13;;;5.63;;
52320;SDS011;38261;54.090;13.382;2024-03-06T01:00:03;10.93;;;5.90;;
52320;SDS011;38261;54.090;13.382;2024-03-06T01:01:32;7.67;;;5.10;;
52320;SDS011;38261;54.090;13.382;2024-03-06T01:02:54;8.27;;;5.50;;
52320;SDS011;38261;54.090;13.382;2024-03-06T01:04:16;9.70;;;5.83;;
52320;SDS011;38261;54.090;13.382;2024-03-06T01:05:38;11.17;;;6.40;;
52320;SDS011;38261;54.090;13.382;2024-03-06T01:07:01;9.70;;;6.27;;
52320;SDS011;38261;54.090;13.382;2024-03-06T01:08:23;11.33;;;5.83;;
52320;SDS011;38261;54.090;13.382;2024-03-06T01:09:46;11.57;;;6.47;;
52320;SDS011;38261;54.090;13.382;2024-03-06T01:11:08;13.20;;;6.47;;
52320;SDS011;38261;54.090;13.382;2024-03-06T01:12:32;9.93;;;5.40;;
52320;SDS011;38261;54.090;13.382;2024-03-06T01:13:54;9.70;;;5.63;;
52320;SDS011;38261;54.090;13.382;2024-03-06T01:15:16;10.83;;;6.77;;
52320;SDS011;38261;54.090;13.382;2024-03-06T01:16:39;11.33;;;6.10;;
52320;SDS011;38261;54.090;13.382;2024-03-06T01:18:01;9.37;;;5.50;;
52320;SDS011;38261;54.090;13.382;2024-03-06T01:19:25;11.00;;;6.43;;
52320;SDS011;38261;54.090;13.382;2024-03-06T01:20:47;10.40;;;6.07;;
52320;SDS011;38261;54.090;13.382;2024-03-06T01:22:10;9.97;;;7.40;;
52320;SDS011;38261;54.090;13.382;2024-03-06T01:23:32;10.77;;;6.67;;
52320;SDS011;38261;54.090;13.382;2024-03-06T01:24:54;9.93;;;6.90;;
52320;SDS011;38261;54.090;13.382;2024-03-06T01:26:16;9.90;;;6.40;;
52320;SDS011;38261;54.090;13.382;2024-03-06T01:27:38;11.20;;;6.30;;
52320;SDS011;38261;54.090;13.382;2024-03-06T01:29:01;12.00;;;7.07;;
52320;SDS011;38261;54.090;13.382;2024-03-06T01:30:23;13.33;;;7.07;;
52320;SDS011;38261;54.090;13.382;2024-03-06T01:31:45;13.90;;;6.40;;
52320;SDS011;38261;54.090;13.382;2024-03-06T01:33:08;10.40;;;6.10;;
52320;SDS011;38261;54.090;13.382;2024-03-06T01:34:31;10.27;;;5.90;;
52320;SDS011;38261;54.090;13.382;2024-03-06T01:35:53;8.27;;;6.07;;
52320;SDS011;38261;54.090;13.382;2024-03-06T01:37:15;11.20;;;5.67;;
52320;SDS011;38261;54.090;13.382;2024-03-06T01:38:38;11.23;;;6.20;;
52320;SDS011;38261;54.090;13.382;2024-03-06T01:40:00;11.20;;;5.30;;
52320;SDS011;38261;54.090;13.382;2024-03-06T01:41:25;6.93;;;5.17;;
52320;SDS011;38261;54.090;13.382;2024-03-06T01:42:47;12.87;;;6.33;;
52320;SDS011;38261;54.090;13.382;2024-03-06T01:44:10;10.27;;;5.60;;
52320;SDS011;38261;54.090;13.382;2024-03-06T01:45:33;9.40;;;5.70;;
52320;SDS011;38261;54.090;13.382;2024-03-06T01:46:56;10.33;;;6.73;;
52320;SDS011;38261;54.090;13.382;2024-03-06T01:48:23;11.63;;;5.60;;
52320;SDS011;38261;54.090;13.382;2024-03-06T01:49:49;8.00;;;5.90;;
52320;SDS011;38261;54.090;13.382;2024-03-06T01:51:12;11.13;;;6.50;;
52320;SDS011;38261;54.090;13.382;2024-03-06T01:52:35;10.73;;;6.97;;
52320;SDS011;38261;54.090;13.382;2024-03-06T01:53:58;9.73;;;6.43;;
52320;SDS011;38261;54.090;13.382;2024-03-06T01:55:25;9.13;;;5.77;;
52320;SDS011;38261;54.090;13.382;2024-03-06T01:56:48;10.10;;;6.20;;
52320;SDS011;38261;54.090;13.382;2024-03-06T01:58:11;9.50;;;6.20;;
52320;SDS011;38261;54.090;13.382;2024-03-06T01:59:34;10.97;;;6.43;;
52320;SDS011;38261;54.090;13.382;2024-03-06T02:00:58;10.17;;;6.43;;
52320;SDS011;38261;54.090;13.382;2024-03-06T02:02:20;10.17;;;5.70;;
52320;SDS011;38261;54.090;13.382;2024-03-06T02:03:43;8.13;;;5.80;;
52320;SDS011;38261;54.090;13.382;2024-03-06T02:05:06;10.80;;;5.97;;
52320;SDS011;38261;54.090;13.382;2024-03-06T02:06:29;9.03;;;6.03;;
52320;SDS011;38261;54.090;13.382;2024-03-06T02:07:51;9.80;;;6.17;;
52320;SDS011;38261;54.090;13.382;2024-03-06T02:09:15;11.83;;;5.80;;
52320;SDS011;38261;54.090;13.382;2024-03-06T02:10:38;14.60;;;6.80;;
52320;SDS011;38261;54.090;13.382;2024-03-06T02:12:00;10.97;;;6.60;;
52320;SDS011;38261;54.090;13.382;2024-03-06T02:13:22;12.63;;;6.73;;
52320;SDS011;38261;54.090;13.382;2024-03-06T02:14:45;12.03;;;5.23;;
52320;SDS011;38261;54.090;13.382;2024-03-06T02:16:07;10.40;;;6.30;;
52320;SDS011;38261;54.090;13.382;2024-03-06T02:17:29;8.73;;;5.00;;
52320;SDS011;38261;54.090;13.382;2024-03-06T02:18:52;9.17;;;5.80;;
52320;SDS011;38261;54.090;13.382;2024-03-06T02:20:15;9.93;;;6.40;;
52320;SDS011;38261;54.090;13.382;2024-03-06T02:21:38;12.53;;;5.97;;
52320;SDS011;38261;54.090;13.382;2024-03-06T02:23:00;8.77;;;5.80;;
52320;SDS011;38261;54.090;13.382;2024-03-06T02:24:22;10.37;;;6.20;;
52320;SDS011;38261;54.090;13.382;2024-03-06T02:25:45;11.23;;;6.37;;
52320;SDS011;38261;54.090;13.382;2024-03-06T02:27:10;10.80;;;6.77;;
52320;SDS011;38261;54.090;13.382;2024-03-06T02:28:32;15.90;;;6.50;;
52320;SDS011;38261;54.090;13.382;2024-03-06T02:29:56;8.43;;;5.70;;
52320;SDS011;38261;54.090;13.382;2024-03-06T02:31:19;12.70;;;6.87;;
52320;SDS011;38261;54.090;13.382;2024-03-06T02:32:41;11.90;;;7.30;;
52320;SDS011;38261;54.090;13.382;2024-03-06T02:34:05;15.30;;;6.40;;
52320;SDS011;38261;54.090;13.382;2024-03-06T02:35:28;8.77;;;6.70;;
52320;SDS011;38261;54.090;13.382;2024-03-06T02:36:50;11.50;;;6.20;;
52320;SDS011;38261;54.090;13.382;2024-03-06T02:38:13;8.40;;;6.60;;
52320;SDS011;38261;54.090;13.382;2024-03-06T02:39:36;10.00;;;6.03;;
52320;SDS011;38261;54.090;13.382;2024-03-06T02:40:58;10.10;;;5.80;;
52320;SDS011;38261;54.090;13.382;2024-03-06T02:42:21;10.90;;;5.73;;
52320;SDS011;38261;54.090;13.382;2024-03-06T02:43:43;12.63;;;6.60;;
52320;SDS011;38261;54.090;13.382;2024-03-06T02:45:06;11.33;;;6.20;;
52320;SDS011;38261;54.090;13.382;2024-03-06T02:46:31;14.53;;;6.67;;
52320;SDS011;38261;54.090;13.382;2024-03-06T02:47:53;12.37;;;6.40;;
52320;SDS011;38261;54.090;13.382;2024-03-06T02:49:16;13.30;;;6.70;;
52320;SDS011;38261;54.090;13.382;2024-03-06T02:50:39;11.80;;;7.20;;
52320;SDS011;38261;54.090;13.382;2024-03-06T02:52:01;13.23;;;6.30;;
52320;SDS011;38261;54.090;13.382;2024-03-06T02:53:23;8.23;;;5.50;;
52320;SDS011;38261;54.090;13.382;2024-03-06T02:54:47;8.83;;;6.30;;
52320;SDS011;38261;54.090;13.382;2024-03-06T02:56:15;9.97;;;6.73;;
52320;SDS011;38261;54.090;13.382;2024-03-06T02:57:38;16.53;;;6.10;;
52320;SDS011;38261;54.090;13.382;2024-03-06T02:59:00;9.70;;;6.60;;
52320;SDS011;38261;54.090;13.382;2024-03-06T03:00:24;12.03;;;6.47;;
52320;SDS011;38261;54.090;13.382;2024-03-06T03:01:46;13.27;;;7.53;;
52320;SDS011;38261;54.090;13.382;2024-03-06T03:03:10;9.70;;;6.77;;
52320;SDS011;38261;54.090;13.382;2024-03-06T03:04:34;10.97;;;6.83;;
52320;SDS011;38261;54.090;13.382;2024-03-06T03:05:57;10.07;;;6.17;;
52320;SDS011;38261;54.090;13.382;2024-03-06T03:07:19;13.23;;;7.47;;
52320;SDS011;38261;54.090;13.382;2024-03-06T03:08:41;11.33;;;5.83;;
52320;SDS011;38261;54.090;13.382;2024-03-06T03:10:03;9.17;;;6.67;;
52320;SDS011;38261;54.090;13.382;2024-03-06T03:11:26;10.57;;;6.50;;
52320;SDS011;38261;54.090;13.382;2024-03-06T03:12:48;11.40;;;6.40;;
52320;SDS011;38261;54.090;13.382;2024-03-06T03:14:10;13.10;;;6.80;;
52320;SDS011;38261;54.090;13.382;2024-03-06T03:15:33;11.00;;;6.97;;
52320;SDS011;38261;54.090;13.382;2024-03-06T03:16:55;12.27;;;6.50;;
52320;SDS011;38261;54.090;13.382;2024-03-06T03:18:17;11.73;;;6.10;;
52320;SDS011;38261;54.090;13.382;2024-03-06T03:19:39;10.80;;;6.73;;
52320;SDS011;38261;54.090;13.382;2024-03-06T03:21:02;12.83;;;7.00;;
52320;SDS011;38261;54.090;13.382;2024-03-06T03:22:24;12.33;;;6.83;;
52320;SDS011;38261;54.090;13.382;2024-03-06T03:23:46;14.37;;;7.27;;
52320;SDS011;38261;54.090;13.382;2024-03-06T03:25:12;11.53;;;6.57;;
52320;SDS011;38261;54.090;13.382;2024-03-06T03:26:34;13.77;;;7.30;;
52320;SDS011;38261;54.090;13.382;2024-03-06T03:27:57;12.63;;;6.77;;
52320;SDS011;38261;54.090;13.382;2024-03-06T03:29:20;13.57;;;7.00;;
52320;SDS011;38261;54.090;13.382;2024-03-06T03:30:43;12.60;;;6.77;;
52320;SDS011;38261;54.090;13.382;2024-03-06T03:32:05;10.20;;;6.80;;
52320;SDS011;38261;54.090;13.382;2024-03-06T03:33:28;11.17;;;6.80;;
52320;SDS011;38261;54.090;13.382;2024-03-06T03:34:50;8.20;;;5.73;;
52320;SDS011;38261;54.090;13.382;2024-03-06T03:36:12;18.03;;;6.30;;
52320;SDS011;38261;54.090;13.382;2024-03-06T03:37:34;15.53;;;7.20;;
52320;SDS011;38261;54.090;13.382;2024-03-06T03:38:56;14.60;;;7.17;;
52320;SDS011;38261;54.090;13.382;2024-03-06T03:40:18;12.50;;;6.73;;
52320;SDS011;38261;54.090;13.382;2024-03-06T03:41:47;9.70;;;6.77;;
52320;SDS011;38261;54.090;13.382;2024-03-06T03:43:10;12.97;;;7.27;;
52320;SDS011;38261;54.090;13.382;2024-03-06T03:44:32;13.90;;;7.43;;
52320;SDS011;38261;54.090;13.382;2024-03-06T03:45:54;13.07;;;6.73;;
52320;SDS011;38261;54.090;13.382;2024-03-06T03:47:17;11.80;;;7.00;;
52320;SDS011;38261;54.090;13.382;2024-03-06T03:48:39;11.30;;;6.47;;
52320;SDS011;38261;54.090;13.382;2024-03-06T03:50:01;11.43;;;6.23;;
52320;SDS011;38261;54.090;13.382;2024-03-06T03:51:31;9.93;;;6.93;;
52320;SDS011;38261;54.090;13.382;2024-03-06T03:52:54;15.90;;;7.43;;
52320;SDS011;38261;54.090;13.382;2024-03-06T03:54:16;11.13;;;6.40;;
52320;SDS011;38261;54.090;13.382;2024-03-06T03:55:38;14.13;;;6.90;;
52320;SDS011;38261;54.090;13.382;2024-03-06T03:57:00;15.63;;;7.30;;
52320;SDS011;38261;54.090;13.382;2024-03-06T03:58:22;15.07;;;7.33;;
52320;SDS011;38261;54.090;13.382;2024-03-06T03:59:45;12.53;;;6.47;;
52320;SDS011;38261;54.090;13.382;2024-03-06T04:01:09;12.60;;;6.70;;
52320;SDS011;38261;54.090;13.382;2024-03-06T04:02:35;13.00;;;6.57;;
52320;SDS011;38261;54.090;13.382;2024-03-06T04:03:57;12.60;;;6.80;;
52320;SDS011;38261;54.090;13.382;2024-03-06T04:05:19;14.13;;;7.63;;
52320;SDS011;38261;54.090;13.382;2024-03-06T04:06:43;14.97;;;7.63;;
52320;SDS011;38261;54.090;13.382;2024-03-06T04:08:05;13.83;;;7.33;;
52320;SDS011;38261;54.090;13.382;2024-03-06T04:09:28;11.07;;;6.80;;
52320;SDS011;38261;54.090;13.382;2024-03-06T04:10:50;18.57;;;7.90;;
52320;SDS011;38261;54.090;13.382;2024-03-06T04:12:12;11.50;;;7.10;;
52320;SDS011;38261;54.090;13.382;2024-03-06T04:13:36;14.03;;;8.47;;
52320;SDS011;38261;54.090;13.382;2024-03-06T04:14:59;12.47;;;6.90;;
52320;SDS011;38261;54.090;13.382;2024-03-06T04:16:21;11.83;;;6.83;;
52320;SDS011;38261;54.090;13.382;2024-03-06T04:17:43;13.43;;;7.43;;
52320;SDS011;38261;54.090;13.382;2024-03-06T04:19:05;12.50;;;7.23;;
52320;SDS011;38261;54.090;13.382;2024-03-06T04:20:27;12.80;;;7.87;;
52320;SDS011;38261;54.090;13.382;2024-03-06T04:21:49;11.27;;;6.73;;
52320;SDS011;38261;54.090;13.382;2024-03-06T04:23:12;13.67;;;7.00;;
52320;SDS011;38261;54.090;13.382;2024-03-06T04:24:34;10.70;;;6.97;;
52320;SDS011;38261;54.090;13.382;2024-03-06T04:25:56;8.83;;;6.50;;
52320;SDS011;38261;54.090;13.382;2024-03-06T04:27:19;11.13;;;6.83;;
52320;SDS011;38261;54.090;13.382;2024-03-06T04:28:41;10.47;;;7.10;;
52320;SDS011;38261;54.090;13.382;2024-03-06T04:30:03;11.60;;;6.60;;
52320;SDS011;38261;54.090;13.382;2024-03-06T04:31:26;11.60;;;6.80;;
52320;SDS011;38261;54.090;13.382;2024-03-06T04:32:49;12.30;;;6.97;;
52320;SDS011;38261;54.090;13.382;2024-03-06T04:34:11;10.70;;;6.57;;
52320;SDS011;38261;54.090;13.382;2024-03-06T04:35:34;12.33;;;7.53;;
52320;SDS011;38261;54.090;13.382;2024-03-06T04:36:56;13.13;;;7.60;;
52320;SDS011;38261;54.090;13.382;2024-03-06T04:38:18;11.70;;;7.03;;
52320;SDS011;38261;54.090;13.382;2024-03-06T04:39:40;12.13;;;7.23;;
52320;SDS011;38261;54.090;13.382;2024-03-06T04:41:04;10.27;;;6.97;;
52320;SDS011;38261;54.090;13.382;2024-03-06T04:42:28;12.10;;;6.87;;
52320;SDS011;38261;54.090;13.382;2024-03-06T04:43:50;10.90;;;7.13;;
52320;SDS011;38261;54.090;13.382;2024-03-06T04:45:16;12.70;;;7.50;;
52320;SDS011;38261;54.090;13.382;2024-03-06T04:46:39;12.37;;;7.17;;
52320;SDS011;38261;54.090;13.382;2024-03-06T04:48:01;14.47;;;7.00;;
52320;SDS011;38261;54.090;13.382;2024-03-06T04:49:23;13.00;;;7.83;;
52320;SDS011;38261;54.090;13.382;2024-03-06T04:50:45;14.07;;;7.37;;
52320;SDS011;38261;54.090;13.382;2024-03-06T04:52:07;13.83;;;7.17;;
52320;SDS011;38261;54.090;13.382;2024-03-06T04:53:30;13.87;;;8.27;;
52320;SDS011;38261;54.090;13.382;2024-03-06T04:54:53;13.23;;;8.03;;
52320;SDS011;38261;54.090;13.382;2024-03-06T04:56:15;14.40;;;7.63;;
52320;SDS011;38261;54.090;13.382;2024-03-06T04:57:42;13.20;;;8.40;;
52320;SDS011;38261;54.090;13.382;2024-03-06T04:59:05;12.77;;;8.33;;
52320;SDS011;38261;54.090;13.382;2024-03-06T05:00:27;13.00;;;7.80;;
52320;SDS011;38261;54.090;13.382;2024-03-06T05:01:51;16.30;;;8.57;;
52320;SDS011;38261;54.090;13.382;2024-03-06T05:03:14;15.83;;;8.00;;
52320;SDS011;38261;54.090;13.382;2024-03-06T05:04:53;15.33;;;7.90;;
52320;SDS011;38261;54.090;13.382;2024-03-06T05:06:33;14.80;;;8.20;;
52320;SDS011;38261;54.090;13.382;2024-03-06T05:08:14;12.33;;;7.63;;
52320;SDS011;38261;54.090;13.382;2024-03-06T05:09:53;22.40;;;8.50;;
52320;SDS011;38261;54.090;13.382;2024-03-06T05:11:33;16.10;;;8.03;;
52320;SDS011;38261;54.090;13.382;2024-03-06T05:13:12;13.97;;;8.10;;
52320;SDS011;38261;54.090;13.382;2024-03-06T05:14:52;11.07;;;7.63;;
52320;SDS011;38261;54.090;13.382;2024-03-06T05:16:32;12.27;;;7.60;;
52320;SDS011;38261;54.090;13.382;2024-03-06T05:18:12;13.33;;;8.10;;
52320;SDS011;38261;54.090;13.382;2024-03-06T05:19:52;14.90;;;7.70;;
52320;SDS011;38261;54.090;13.382;2024-03-06T05:21:33;13.97;;;8.40;;
52320;SDS011;38261;54.090;13.382;2024-03-06T05:23:14;12.03;;;7.90;;
52320;SDS011;38261;54.090;13.382;2024-03-06T05:24:56;13.60;;;8.30;;
52320;SDS011;38261;54.090;13.382;2024-03-06T05:26:37;14.10;;;8.17;;
52320;SDS011;38261;54.090;13.382;2024-03-06T05:28:16;13.93;;;8.07;;
52320;SDS011;38261;54.090;13.382;2024-03-06T05:29:56;13.97;;;7.17;;
52320;SDS011;38261;54.090;13.382;2024-03-06T05:31:36;16.03;;;7.70;;
52320;SDS011;38261;54.090;13.382;2024-03-06T05:33:16;16.37;;;10.60;;
52320;SDS011;38261;54.090;13.382;2024-03-06T05:34:55;19.47;;;9.00;;
52320;SDS011;38261;54.090;13.382;2024-03-06T05:36:37;18.00;;;9.17;;
52320;SDS011;38261;54.090;13.382;2024-03-06T05:38:16;18.00;;;9.20;;
52320;SDS011;38261;54.090;13.382;2024-03-06T05:39:56;15.50;;;8.20;;
52320;SDS011;38261;54.090;13.382;2024-03-06T05:41:36;18.53;;;9.30;;
52320;SDS011;38261;54.090;13.382;2024-03-06T05:43:16;16.10;;;9.17;;
52320;SDS011;38261;54.090;13.382;2024-03-06T05:44:55;20.13;;;9.43;;
52320;SDS011;38261;54.090;13.382;2024-03-06T05:46:39;15.37;;;8.87;;
52320;SDS011;38261;54.090;13.382;2024-03-06T05:48:19;18.90;;;9.67;;
52320;SDS011;38261;54.090;13.382;2024-03-06T05:49:59;12.97;;;7.93;;
52320;SDS011;38261;54.090;13.382;2024-03-06T05:51:39;13.20;;;8.30;;
52320;SDS011;38261;54.090;13.382;2024-03-06T05:53:19;20.30;;;8.70;;
52320;SDS011;38261;54.090;13.382;2024-03-06T05:54:59;17.30;;;8.80;;
52320;SDS011;38261;54.090;13.382;2024-03-06T05:56:38;14.17;;;8.57;;
52320;SDS011;38261;54.090;13.382;2024-03-06T05:58:18;14.17;;;8.73;;
52320;SDS011;38261;54.090;13.382;2024-03-06T05:59:43;15.03;;;7.73;;
52320;SDS011;38261;54.090;13.382;2024-03-06T06:01:05;18.80;;;8.17;;
52320;SDS011;38261;54.090;13.382;2024-03-06T06:02:27;17.03;;;9.03;;
52320;SDS011;38261;54.090;13.382;2024-03-06T06:03:49;16.20;;;9.80;;
52320;SDS011;38261;54.090;13.382;2024-03-06T06:05:12;20.97;;;10.93;;
52320;SDS011;38261;54.090;13.382;2024-03-06T06:06:39;21.17;;;10.13;;
52320;SDS011;38261;54.090;13.382;2024-03-06T06:08:01;18.77;;;8.73;;
52320;SDS011;38261;54.090;13.382;2024-03-06T06:09:24;16.30;;;9.10;;
52320;SDS011;38261;54.090;13.382;2024-03-06T06:10:46;14.80;;;9.00;;
52320;SDS011;38261;54.090;13.382;2024-03-06T06:12:08;17.20;;;9.00;;
52320;SDS011;38261;54.090;13.382;2024-03-06T06:13:30;16.37;;;8.90;;
52320;SDS011;38261;54.090;13.382;2024-03-06T06:14:52;15.93;;;8.97;;
52320;SDS011;38261;54.090;13.382;2024-03-06T06:16:14;12.80;;;8.00;;
52320;SDS011;38261;54.090;13.382;2024-03-06T06:17:37;14.83;;;8.90;;
52320;SDS011;38261;54.090;13.382;2024-03-06T06:18:59;14.53;;;8.63;;
52320;SDS011;38261;54.090;13.382;2024-03-06T06:20:21;18.10;;;9.10;;
52320;SDS011;38261;54.090;13.382;2024-03-06T06:21:44;16.53;;;8.90;;
52320;SDS011;38261;54.090;13.382;2024-03-06T06:23:06;16.00;;;9.47;;
52320;SDS011;38261;54.090;13.382;2024-03-06T06:24:28;16.10;;;8.70;;
52320;SDS011;38261;54.090;13.382;2024-03-06T06:25:51;18.03;;;10.00;;
52320;SDS011;38261;54.090;13.382;2024-03-06T06:27:13;21.83;;;10.50;;
52320;SDS011;38261;54.090;13.382;2024-03-06T06:28:35;24.20;;;12.90;;
52320;SDS011;38261;54.090;13.382;2024-03-06T06:29:58;22.60;;;11.70;;
52320;SDS011;38261;54.090;13.382;2024-03-06T06:31:23;25.77;;;12.10;;
52320;SDS011;38261;54.090;13.382;2024-03-06T06:32:46;21.60;;;11.60;;
52320;SDS011;38261;54.090;13.382;2024-03-06T06:34:09;19.40;;;10.00;;
52320;SDS011;38261;54.090;13.382;2024-03-06T06:35:31;21.03;;;11.93;;
52320;SDS011;38261;54.090;13.382;2024-03-06T06:36:54;23.80;;;12.70;;
52320;SDS011;38261;54.090;13.382;2024-03-06T06:38:16;23.53;;;11.47;;
52320;SDS011;38261;54.090;13.382;2024-03-06T06:39:38;22.40;;;12.60;;
52320;SDS011;38261;54.090;13.382;2024-03-06T06:41:00;19.37;;;10.87;;
52320;SDS011;38261;54.090;13.382;2024-03-06T06:42:22;22.13;;;11.33;;
52320;SDS011;38261;54.090;13.382;2024-03-06T06:43:46;25.27;;;11.17;;
52320;SDS011;38261;54.090;13.382;2024-03-06T06:45:08;20.03;;;11.60;;
52320;SDS011;38261;54.090;13.382;2024-03-06T06:46:31;24.27;;;10.83;;
52320;SDS011;38261;54.090;13.382;2024-03-06T06:47:53;21.43;;;11.00;;
52320;SDS011;38261;54.090;13.382;2024-03-06T06:49:15;17.90;;;9.90;;
52320;SDS011;38261;54.090;13.382;2024-03-06T06:50:39;17.13;;;10.60;;
52320;SDS011;38261;54.090;13.382;2024-03-06T06:52:01;21.90;;;10.33;;
52320;SDS011;38261;54.090;13.382;2024-03-06T06:53:23;17.60;;;9.80;;
52320;SDS011;38261;54.090;13.382;2024-03-06T06:54:46;19.17;;;10.20;;
52320;SDS011;38261;54.090;13.382;2024-03-06T06:56:08;18.97;;;10.27;;
52320;SDS011;38261;54.090;13.382;2024-03-06T06:57:30;20.83;;;11.40;;
52320;SDS011;38261;54.090;13.382;2024-03-06T06:58:54;21.07;;;11.27;;
52320;SDS011;38261;54.090;13.382;2024-03-06T07:00:18;19.17;;;11.47;;
52320;SDS011;38261;54.090;13.382;2024-03-06T07:01:43;18.80;;;10.60;;
52320;SDS011;38261;54.090;13.382;2024-03-06T07:03:05;17.20;;;10.57;;
52320;SDS011;38261;54.090;13.382;2024-03-06T07:04:28;18.43;;;11.10;;
52320;SDS011;38261;54.090;13.382;2024-03-06T07:05:50;20.70;;;12.03;;
52320;SDS011;38261;54.090;13.382;2024-03-06T07:07:13;34.63;;;18.33;;
52320;SDS011;38261;54.090;13.382;2024-03-06T07:08:35;44.33;;;22.73;;
52320;SDS011;38261;54.090;13.382;2024-03-06T07:09:57;20.93;;;12.50;;
52320;SDS011;38261;54.090;13.382;2024-03-06T07:11:19;23.03;;;11.73;;
52320;SDS011;38261;54.090;13.382;2024-03-06T07:12:43;22.00;;;14.10;;
52320;SDS011;38261;54.090;13.382;2024-03-06T07:14:05;23.30;;;13.07;;
52320;SDS011;38261;54.090;13.382;2024-03-06T07:15:27;23.90;;;13.00;;
52320;SDS011;38261;54.090;13.382;2024-03-06T07:16:50;19.93;;;11.73;;
52320;SDS011;38261;54.090;13.382;2024-03-06T07:18:12;20.33;;;11.77;;
52320;SDS011;38261;54.090;13.382;2024-03-06T07:19:35;19.63;;;11.63;;
52320;SDS011;38261;54.090;13.382;2024-03-06T07:20:57;19.10;;;13.23;;
52320;SDS011;38261;54.090;13.382;2024-03-06T07:22:19;19.00;;;11.10;;
52320;SDS011;38261;54.090;13.382;2024-03-06T07:23:41;19.13;;;11.33;;
52320;SDS011;38261;54.090;13.382;2024-03-06T07:25:04;16.50;;;10.90;;
52320;SDS011;38261;54.090;13.382;2024-03-06T07:26:27;15.50;;;10.27;;
52320;SDS011;38261;54.090;13.382;2024-03-06T07:27:51;21.97;;;10.40;;
52320;SDS011;38261;54.090;13.382;2024-03-06T07:29:14;13.50;;;8.53;;
52320;SDS011;38261;54.090;13.382;2024-03-06T07:30:36;18.10;;;8.47;;
52320;SDS011;38261;54.090;13.382;2024-03-06T07:31:59;16.50;;;9.27;;
52320;SDS011;38261;54.090;13.382;2024-03-06T07:33:22;17.27;;;8.03;;
52320;SDS011;38261;54.090;13.382;2024-03-06T07:34:44;16.53;;;9.00;;
52320;SDS011;38261;54.090;13.382;2024-03-06T07:36:06;17.57;;;8.47;;
52320;SDS011;38261;54.090;13.382;2024-03-06T07:37:28;16.57;;;9.00;;
52320;SDS011;38261;54.090;13.382;2024-03-06T07:38:51;12.97;;;8.37;;
52320;SDS011;38261;54.090;13.382;2024-03-06T07:40:13;12.20;;;8.17;;
52320;SDS011;38261;54.090;13.382;2024-03-06T07:41:35;14.90;;;9.30;;
52320;SDS011;38261;54.090;13.382;2024-03-06T07:42:57;14.57;;;8.10;;
52320;SDS011;38261;54.090;13.382;2024-03-06T07:44:21;16.80;;;8.80;;
52320;SDS011;38261;54.090;13.382;2024-03-06T07:45:43;15.80;;;8.43;;
52320;SDS011;38261;54.090;13.382;2024-03-06T07:47:05;14.57;;;7.90;;
52320;SDS011;38261;54.090;13.382;2024-03-06T07:48:29;15.03;;;8.77;;
52320;SDS011;38261;54.090;13.382;2024-03-06T07:49:51;11.67;;;7.13;;
52320;SDS011;38261;54.090;13.382;2024-03-06T07:51:13;12.30;;;7.70;;
52320;SDS011;38261;54.090;13.382;2024-03-06T07:52:35;14.60;;;8.50;;
52320;SDS011;38261;54.090;13.382;2024-03-06T07:53:58;12.30;;;7.80;;
52320;SDS011;38261;54.090;13.382;2024-03-06T07:55:20;16.83;;;8.30;;
52320;SDS011;38261;54.090;13.382;2024-03-06T07:56:43;11.70;;;7.70;;
52320;SDS011;38261;54.090;13.382;2024-03-06T07:58:05;11.53;;;7.80;;
52320;SDS011;38261;54.090;13.382;2024-03-06T07:59:29;17.67;;;9.20;;
52320;SDS011;38261;54.090;13.382;2024-03-06T08:00:52;17.43;;;9.80;;
52320;SDS011;38261;54.090;13.382;2024-03-06T08:02:17;15.13;;;8.17;;
52320;SDS011;38261;54.090;13.382;2024-03-06T08:03:40;16.10;;;8.87;;
52320;SDS011;38261;54.090;13.382;2024-03-06T08:05:03;15.27;;;8.50;;
52320;SDS011;38261;54.090;13.382;2024-03-06T08:06:25;14.90;;;9.00;;
52320;SDS011;38261;54.090;13.382;2024-03-06T08:07:48;17.37;;;8.87;;
52320;SDS011;38261;54.090;13.382;2024-03-06T08:09:10;14.80;;;8.77;;
52320;SDS011;38261;54.090;13.382;2024-03-06T08:10:32;21.60;;;10.60;;
52320;SDS011;38261;54.090;13.382;2024-03-06T08:11:55;16.73;;;9.53;;
52320;SDS011;38261;54.090;13.382;2024-03-06T08:13:17;17.77;;;9.73;;